createdAt,value
2022-07-26T00:01:00.534Z,23.30
2022-07-26T00:03:28.377Z,23.30
2022-07-26T00:05:56.353Z,23.20
2022-07-26T00:08:24.189Z,23.20
2022-07-26T00:10:52.299Z,23.10
2022-07-26T00:13:21.436Z,23.10
2022-07-26T00:15:50.612Z,23.00
2022-07-26T00:18:19.526Z,23.00
2022-07-26T00:20:48.370Z,22.90
2022-07-26T00:23:16.643Z,23.00
2022-07-26T00:25:44.510Z,22.90
2022-07-26T00:28:12.742Z,22.90
2022-07-26T00:30:40.780Z,22.90
2022-07-26T00:33:08.682Z,22.90
2022-07-26T00:35:36.709Z,22.80
2022-07-26T00:38:04.783Z,22.90
2022-07-26T00:40:33.137Z,22.80
2022-07-26T00:43:01.279Z,22.80
2022-07-26T00:45:29.136Z,22.80
2022-07-26T00:47:57.094Z,22.80
2022-07-26T00:50:25.032Z,22.00
2022-07-26T00:52:54.328Z,22.80
2022-07-26T00:55:22.334Z,22.70
2022-07-26T00:57:50.469Z,22.70
2022-07-26T01:00:22.279Z,22.70
2022-07-26T01:02:50.438Z,22.80
2022-07-26T01:05:18.325Z,22.80
2022-07-26T01:07:48.186Z,22.80
2022-07-26T01:10:16.572Z,22.90
2022-07-26T01:12:45.162Z,22.80
2022-07-26T01:15:14.710Z,22.70
2022-07-26T01:17:43.442Z,22.70
2022-07-26T01:20:13.169Z,22.80
2022-07-26T01:22:41.492Z,22.80
2022-07-26T01:25:09.862Z,22.60
2022-07-26T01:27:41.215Z,22.50
2022-07-26T01:30:11.133Z,22.50
2022-07-26T01:32:39.604Z,22.50
2022-07-26T01:35:08.662Z,22.50
2022-07-26T01:37:36.703Z,22.60
2022-07-26T01:40:05.292Z,22.70
2022-07-26T01:42:35.118Z,22.70
2022-07-26T01:45:03.357Z,22.60
2022-07-26T01:47:31.376Z,22.50
2022-07-26T01:49:59.151Z,22.50
2022-07-26T01:52:29.855Z,22.50
2022-07-26T01:54:57.900Z,22.40
2022-07-26T01:57:25.926Z,22.20
2022-07-26T01:59:55.619Z,22.20
2022-07-26T02:02:23.985Z,22.00
2022-07-26T02:05:01.408Z,21.90
2022-07-26T02:07:33.922Z,21.80
2022-07-26T02:10:02.147Z,21.70
2022-07-26T02:12:31.423Z,21.60
2022-07-26T02:14:59.591Z,21.60
2022-07-26T02:17:27.510Z,21.60
2022-07-26T02:19:55.565Z,21.50
2022-07-26T02:22:23.492Z,21.50
2022-07-26T02:24:51.773Z,21.50
2022-07-26T02:27:19.848Z,21.60
2022-07-26T02:29:47.793Z,21.70
2022-07-26T02:32:15.848Z,21.90
2022-07-26T02:34:43.655Z,22.00
2022-07-26T02:37:11.601Z,21.90
2022-07-26T02:39:39.433Z,21.90
2022-07-26T02:42:07.296Z,21.90
2022-07-26T02:44:35.806Z,21.90
2022-07-26T02:47:03.833Z,21.90
2022-07-26T02:49:31.737Z,21.90
2022-07-26T02:51:59.581Z,21.80
2022-07-26T02:54:27.460Z,21.80
2022-07-26T02:56:55.317Z,21.80
2022-07-26T02:59:23.253Z,22.00
2022-07-26T03:01:51.199Z,22.10
2022-07-26T03:04:19.141Z,22.00
2022-07-26T03:06:47.028Z,21.80
2022-07-26T03:09:14.865Z,21.70
2022-07-26T03:11:42.765Z,21.50
2022-07-26T03:14:10.958Z,21.40
2022-07-26T03:16:39.249Z,21.40
2022-07-26T03:19:07.104Z,21.30
2022-07-26T03:21:34.953Z,21.20
2022-07-26T03:24:02.976Z,21.30
2022-07-26T03:26:31.044Z,21.20
2022-07-26T03:28:59.302Z,21.20
2022-07-26T03:31:27.334Z,21.20
2022-07-26T03:33:58.598Z,21.10
2022-07-26T03:36:30.711Z,21.00
2022-07-26T03:38:58.612Z,21.00
2022-07-26T03:41:26.440Z,21.00
2022-07-26T03:43:54.247Z,21.00
2022-07-26T03:47:37.853Z,20.90
2022-07-26T03:50:07.238Z,21.00
2022-07-26T03:52:35.320Z,21.00
2022-07-26T03:55:26.011Z,21.00
2022-07-26T03:57:53.896Z,21.00
2022-07-26T04:00:21.839Z,21.00
2022-07-26T04:02:50.009Z,21.10
2022-07-26T04:05:23.422Z,21.00
2022-07-26T04:07:53.315Z,20.90
2022-07-26T04:10:22.447Z,20.90
2022-07-26T04:12:50.905Z,20.90
2022-07-26T04:15:21.004Z,20.90
2022-07-26T04:17:49.079Z,20.90
2022-07-26T04:20:17.515Z,21.00
2022-07-26T04:22:45.407Z,21.10
2022-07-26T04:25:13.464Z,21.40
2022-07-26T04:27:41.338Z,21.50
2022-07-26T04:30:14.831Z,21.70
2022-07-26T04:32:46.674Z,21.80
2022-07-26T04:40:21.645Z,22.20
2022-07-26T04:42:52.362Z,22.40
2022-07-26T04:45:21.603Z,22.50
2022-07-26T04:47:50.966Z,22.60
2022-07-26T04:50:23.138Z,22.60
2022-07-26T04:52:52.278Z,22.20
2022-07-26T04:55:20.541Z,21.80
2022-07-26T04:57:49.532Z,21.90
2022-07-26T05:00:24.193Z,22.10
2022-07-26T05:02:58.720Z,22.20
2022-07-26T05:05:29.829Z,22.30
2022-07-26T05:07:59.542Z,22.30
2022-07-26T05:10:35.369Z,22.10
2022-07-26T05:13:05.608Z,22.00
2022-07-26T05:15:36.001Z,21.70
2022-07-26T05:18:10.333Z,22.40
2022-07-26T05:20:39.312Z,22.90
2022-07-26T05:23:07.978Z,23.20
2022-07-26T05:25:36.605Z,23.00
2022-07-26T05:28:04.772Z,23.20
2022-07-26T05:30:32.867Z,23.80
2022-07-26T05:33:00.808Z,23.30
2022-07-26T05:35:31.413Z,23.30
2022-07-26T05:38:00.023Z,23.60
2022-07-26T05:40:27.854Z,23.30
2022-07-26T05:42:55.716Z,23.70
2022-07-26T05:45:23.583Z,23.80
2022-07-26T05:47:52.600Z,24.00
2022-07-26T05:50:20.718Z,24.10
2022-07-26T05:52:48.901Z,24.40
2022-07-26T05:55:16.851Z,24.60
2022-07-26T05:57:49.653Z,24.70
2022-07-26T06:00:18.249Z,24.80
2022-07-26T06:02:46.406Z,24.90
2022-07-26T06:05:15.965Z,25.20
2022-07-26T06:07:44.005Z,25.00
2022-07-26T06:10:12.263Z,25.50
2022-07-26T06:12:42.694Z,25.80
2022-07-26T06:15:15.634Z,26.10
2022-07-26T06:17:44.073Z,26.30
2022-07-26T06:20:12.211Z,26.50
2022-07-26T06:22:40.219Z,26.60
2022-07-26T06:25:08.537Z,26.40
2022-07-26T06:27:36.569Z,26.60
2022-07-26T06:30:05.078Z,27.00
2022-07-26T06:32:33.112Z,27.00
2022-07-26T06:35:01.080Z,27.10
2022-07-26T06:37:28.984Z,26.70
2022-07-26T06:39:56.776Z,26.20
2022-07-26T06:42:25.093Z,26.30
2022-07-26T06:44:52.885Z,26.50
2022-07-26T06:47:20.802Z,26.20
2022-07-26T06:49:48.658Z,26.10
2022-07-26T06:52:16.560Z,26.50
2022-07-26T06:54:47.801Z,27.30
2022-07-26T06:57:15.776Z,27.70
2022-07-26T06:59:43.743Z,28.20
2022-07-26T07:02:11.628Z,28.60
2022-07-26T07:04:47.119Z,28.60
2022-07-26T07:07:21.356Z,28.10
2022-07-26T07:09:49.372Z,28.10
2022-07-26T07:12:17.343Z,28.30
2022-07-26T07:14:45.295Z,28.60
2022-07-26T07:17:17.145Z,28.50
2022-07-26T07:19:47.984Z,28.60
2022-07-26T07:22:17.538Z,29.00
2022-07-26T07:24:46.640Z,29.20
2022-07-26T07:27:16.498Z,28.90
2022-07-26T07:29:44.672Z,29.40
2022-07-26T07:32:15.777Z,29.50
2022-07-26T07:34:49.057Z,29.70
2022-07-26T07:37:20.135Z,29.80
2022-07-26T07:39:50.761Z,30.30
2022-07-26T07:42:19.904Z,30.60
2022-07-26T07:44:48.000Z,30.90
2022-07-26T07:47:15.905Z,30.80
2022-07-26T07:49:46.701Z,31.10
2022-07-26T07:52:17.632Z,31.30
2022-07-26T07:54:46.313Z,31.50
2022-07-26T07:57:14.229Z,31.60
2022-07-26T07:59:42.791Z,31.30
2022-07-26T08:02:12.808Z,31.20
2022-07-26T08:05:15.823Z,31.40
2022-07-26T08:07:46.490Z,31.50
2022-07-26T08:10:14.398Z,31.40
2022-07-26T08:12:42.585Z,31.20
2022-07-26T08:15:39.615Z,31.30
2022-07-26T08:18:07.996Z,31.40
2022-07-26T08:20:36.616Z,31.30
2022-07-26T08:23:04.840Z,31.50
2022-07-26T08:25:50.151Z,31.80
2022-07-26T08:28:45.625Z,31.90
2022-07-26T08:31:12.948Z,31.50
2022-07-26T08:33:45.766Z,31.70
2022-07-26T08:36:17.369Z,31.90
2022-07-26T08:38:47.107Z,31.50
2022-07-26T08:41:18.225Z,30.60
2022-07-26T08:43:53.049Z,30.40
2022-07-26T08:46:27.357Z,30.00
2022-07-26T08:48:56.696Z,30.20
2022-07-26T08:51:29.603Z,30.60
2022-07-26T08:54:05.905Z,30.70
2022-07-26T08:56:48.991Z,30.90
2022-07-26T08:59:21.679Z,31.00
2022-07-26T09:02:12.629Z,31.40
2022-07-26T09:04:44.657Z,32.00
2022-07-26T09:07:16.148Z,31.10
2022-07-26T09:09:59.914Z,30.50
2022-07-26T09:12:30.215Z,30.90
2022-07-26T09:14:59.653Z,31.70
2022-07-26T09:17:46.030Z,32.30
2022-07-26T09:20:27.846Z,32.00
2022-07-26T09:23:02.386Z,31.10
2022-07-26T09:25:35.361Z,31.50
2022-07-26T09:28:07.457Z,31.50
2022-07-26T09:30:35.401Z,31.30
2022-07-26T09:33:11.548Z,31.50
2022-07-26T09:35:50.925Z,32.00
2022-07-26T09:38:19.935Z,32.60
2022-07-26T09:40:51.113Z,32.50
2022-07-26T09:43:22.125Z,32.70
2022-07-26T09:46:05.498Z,32.20
2022-07-26T09:49:07.750Z,32.20
2022-07-26T09:51:42.822Z,32.40
2022-07-26T09:54:13.123Z,32.30
2022-07-26T10:05:36.756Z,32.20
2022-07-26T10:08:06.332Z,32.90
2022-07-26T10:10:39.963Z,33.40
2022-07-26T10:13:09.277Z,33.20
2022-07-26T10:15:46.831Z,32.30
2022-07-26T10:18:36.406Z,32.00
2022-07-26T10:21:25.371Z,32.10
2022-07-26T10:23:57.015Z,31.90
2022-07-26T10:26:34.095Z,32.00
2022-07-26T10:29:17.283Z,32.20
2022-07-26T10:31:52.386Z,32.20
2022-07-26T10:34:52.391Z,32.00
2022-07-26T10:37:27.757Z,32.40
2022-07-26T10:40:16.846Z,31.50
2022-07-26T10:42:45.353Z,32.00
2022-07-26T10:45:24.506Z,32.60
2022-07-26T10:48:12.627Z,32.90
2022-07-26T10:50:46.370Z,33.00
2022-07-26T10:53:19.434Z,33.10
2022-07-26T10:55:49.608Z,32.60
2022-07-26T10:58:18.233Z,32.50
2022-07-26T11:01:04.652Z,32.60
2022-07-26T11:03:42.033Z,32.50
2022-07-26T11:06:14.014Z,32.70
2022-07-26T11:08:48.264Z,32.90
2022-07-26T11:11:28.685Z,33.00
2022-07-26T11:14:18.110Z,33.50
2022-07-26T11:16:48.613Z,33.80
2022-07-26T11:19:26.041Z,33.20
2022-07-26T11:21:57.246Z,33.20
2022-07-26T11:24:26.453Z,33.40
2022-07-26T11:26:55.287Z,33.30
2022-07-26T11:29:38.436Z,33.40
2022-07-26T11:32:22.364Z,32.80
2022-07-26T11:35:06.861Z,33.40
2022-07-26T11:37:34.804Z,33.30
2022-07-26T11:40:02.874Z,33.20
2022-07-26T11:42:32.071Z,33.30
2022-07-26T11:45:02.876Z,33.90
2022-07-26T11:47:32.217Z,34.10
2022-07-26T11:50:21.654Z,34.30
2022-07-26T11:52:52.044Z,34.30
2022-07-26T11:55:34.402Z,34.20
2022-07-26T11:58:08.662Z,34.10
2022-07-26T12:00:37.064Z,33.50
2022-07-26T12:03:05.216Z,32.60
2022-07-26T12:05:33.457Z,32.70
2022-07-26T12:08:07.380Z,32.80
2022-07-26T12:10:35.420Z,33.10
2022-07-26T12:13:15.158Z,33.60
2022-07-26T12:15:51.666Z,34.00
2022-07-26T12:18:30.377Z,34.10
2022-07-26T12:21:09.362Z,34.30
2022-07-26T12:23:42.634Z,34.50
2022-07-26T12:26:21.832Z,34.30
2022-07-26T12:28:49.827Z,34.40
2022-07-26T12:31:32.240Z,34.20
2022-07-26T12:34:00.321Z,34.10
2022-07-26T12:36:29.854Z,34.40
2022-07-26T12:38:59.876Z,34.50
2022-07-26T12:41:36.357Z,34.40
2022-07-26T12:44:11.850Z,34.50
2022-07-26T12:46:40.720Z,33.90
2022-07-26T12:49:08.715Z,33.70
2022-07-26T12:51:37.194Z,34.00
2022-07-26T12:54:06.574Z,34.20
2022-07-26T12:56:35.082Z,34.30
2022-07-26T12:59:03.252Z,34.00
2022-07-26T13:01:32.031Z,33.70
2022-07-26T13:04:00.337Z,34.00
2022-07-26T13:06:28.552Z,34.40
2022-07-26T13:08:56.706Z,34.10
2022-07-26T13:11:25.190Z,34.10
2022-07-26T13:13:53.375Z,34.30
2022-07-26T13:16:21.691Z,34.30
2022-07-26T13:18:49.644Z,33.60
2022-07-26T13:21:17.820Z,33.60
2022-07-26T13:23:45.841Z,33.90
2022-07-26T13:26:14.025Z,34.00
2022-07-26T13:28:42.497Z,33.90
2022-07-26T13:31:10.909Z,34.20
2022-07-26T13:33:39.916Z,34.20
2022-07-26T13:36:07.990Z,34.00
2022-07-26T13:38:36.005Z,33.80
2022-07-26T13:41:04.278Z,33.90
2022-07-26T13:43:32.363Z,33.90
2022-07-26T13:46:00.389Z,34.20
2022-07-26T13:48:29.124Z,34.30
2022-07-26T13:50:57.728Z,34.40
2022-07-26T13:53:25.981Z,34.50
2022-07-26T13:55:53.863Z,34.60
2022-07-26T13:58:22.079Z,34.70
2022-07-26T14:00:50.144Z,34.60
2022-07-26T14:03:18.169Z,34.50
2022-07-26T14:05:46.147Z,34.20
2022-07-26T14:08:15.058Z,33.70
2022-07-26T14:10:46.167Z,33.80
2022-07-26T14:13:16.441Z,34.10
2022-07-26T14:15:44.466Z,34.30
2022-07-26T14:18:12.650Z,34.30
2022-07-26T14:20:44.176Z,34.40
2022-07-26T14:23:12.349Z,34.30
2022-07-26T14:25:40.519Z,34.40
2022-07-26T14:28:08.548Z,34.50
2022-07-26T14:30:36.493Z,34.30
2022-07-26T14:33:05.997Z,34.30
2022-07-26T14:35:36.319Z,33.80
2022-07-26T14:38:24.360Z,33.70
2022-07-26T14:45:33.334Z,33.60
2022-07-26T14:48:05.641Z,33.80
2022-07-26T14:50:53.176Z,34.00
2022-07-26T14:53:27.156Z,34.10
2022-07-26T14:55:55.153Z,34.00
2022-07-26T14:58:23.321Z,34.00
2022-07-26T15:00:55.476Z,34.00
2022-07-26T15:03:23.261Z,33.80
2022-07-26T15:05:51.331Z,33.90
2022-07-26T15:08:19.183Z,33.90
2022-07-26T15:15:13.106Z,33.80
2022-07-26T15:17:41.107Z,33.80
2022-07-26T15:20:09.236Z,33.70
2022-07-26T15:22:37.237Z,33.60
2022-07-26T15:25:05.546Z,33.40
2022-07-26T15:27:33.571Z,33.20
2022-07-26T15:30:04.965Z,33.00
2022-07-26T15:32:34.335Z,33.10
2022-07-26T15:35:03.006Z,33.20
2022-07-26T15:37:31.388Z,33.30
2022-07-26T15:39:59.590Z,33.30
2022-07-26T15:42:31.002Z,33.00
2022-07-26T15:44:59.320Z,32.80
2022-07-26T15:47:52.857Z,32.60
2022-07-26T15:50:17.220Z,32.60
2022-07-26T15:52:47.415Z,32.60
2022-07-26T15:55:17.332Z,32.60
2022-07-26T15:57:46.404Z,32.60
2022-07-26T16:00:15.945Z,32.50
2022-07-26T16:02:44.319Z,32.50
2022-07-26T16:05:12.843Z,32.40
2022-07-26T16:07:41.898Z,32.40
2022-07-26T16:10:12.383Z,32.40
2022-07-26T16:12:41.479Z,32.40
2022-07-26T16:15:10.916Z,32.60
2022-07-26T16:17:39.524Z,32.50
2022-07-26T16:20:08.184Z,32.60
2022-07-26T16:22:36.378Z,32.60
2022-07-26T16:25:06.875Z,32.60
2022-07-26T16:27:36.951Z,32.40
2022-07-26T16:30:05.187Z,32.40
2022-07-26T16:32:33.105Z,32.50
2022-07-26T16:35:01.128Z,32.40
2022-07-26T16:37:30.934Z,32.30
2022-07-26T16:39:58.831Z,32.30
2022-07-26T16:42:26.879Z,32.40
2022-07-26T16:44:54.835Z,32.20
2022-07-26T16:47:48.065Z,32.10
2022-07-26T16:50:27.884Z,31.90
2022-07-26T16:52:56.040Z,31.80
2022-07-26T16:55:24.057Z,31.80
2022-07-26T16:57:52.021Z,31.80
2022-07-26T17:00:22.193Z,31.80
2022-07-26T17:02:50.814Z,31.80
2022-07-26T17:05:18.722Z,31.70
2022-07-26T17:07:46.609Z,31.40
2022-07-26T17:10:14.764Z,31.40
2022-07-26T17:12:42.738Z,31.50
2022-07-26T17:15:12.382Z,31.30
2022-07-26T17:17:42.198Z,31.30
2022-07-26T17:20:12.831Z,31.20
2022-07-26T17:22:40.744Z,31.10
2022-07-26T17:25:08.831Z,31.10
2022-07-26T17:27:37.040Z,31.00
2022-07-26T17:30:07.107Z,30.80
2022-07-26T17:32:35.576Z,30.70
2022-07-26T17:35:04.952Z,30.70
2022-07-26T17:37:35.073Z,30.60
2022-07-26T17:40:07.827Z,30.50
2022-07-26T17:42:37.047Z,30.40
2022-07-26T17:45:06.266Z,30.30
2022-07-26T17:47:34.247Z,30.20
2022-07-26T17:50:38.121Z,30.00
2022-07-26T17:52:55.420Z,30.00
2022-07-26T17:55:23.434Z,29.90
2022-07-26T17:57:51.810Z,29.80
2022-07-26T18:00:23.839Z,29.80
2022-07-26T18:02:57.358Z,29.80
2022-07-26T18:05:32.548Z,29.70
2022-07-26T18:08:05.494Z,29.60
2022-07-26T18:10:33.346Z,29.50
2022-07-26T18:13:06.306Z,29.40
2022-07-26T18:15:34.437Z,29.30
2022-07-26T18:18:04.629Z,29.20
2022-07-26T18:20:34.564Z,29.20
2022-07-26T18:23:03.729Z,29.20
2022-07-26T18:25:31.591Z,29.20
2022-07-26T18:28:04.706Z,29.10
2022-07-26T18:30:34.696Z,29.00
2022-07-26T18:33:03.088Z,28.90
2022-07-26T18:35:31.494Z,28.80
2022-07-26T18:37:59.439Z,28.70
2022-07-26T18:40:27.579Z,28.70
2022-07-26T18:42:55.582Z,28.60
2022-07-26T18:45:23.497Z,28.60
2022-07-26T18:47:51.591Z,28.70
2022-07-26T18:50:21.680Z,28.60
2022-07-26T18:52:50.212Z,28.60
2022-07-26T18:55:18.264Z,28.60
2022-07-26T18:57:46.283Z,28.50
2022-07-26T19:00:19.411Z,28.40
2022-07-26T19:02:47.695Z,28.30
2022-07-26T19:05:19.162Z,28.30
2022-07-26T19:07:47.044Z,28.20
2022-07-26T19:10:15.628Z,28.10
2022-07-26T19:12:46.113Z,28.10
2022-07-26T19:15:16.631Z,28.10
2022-07-26T19:17:44.723Z,28.10
2022-07-26T19:20:12.998Z,28.00
2022-07-26T19:22:41.349Z,28.10
2022-07-26T19:25:10.575Z,28.10
2022-07-26T19:27:39.007Z,28.10
2022-07-26T19:30:09.323Z,28.00
2022-07-26T19:32:38.169Z,28.00
2022-07-26T19:35:06.906Z,27.90
2022-07-26T19:37:34.875Z,27.90
2022-07-26T19:40:03.934Z,27.80
2022-07-26T19:42:33.574Z,27.80
2022-07-26T19:45:02.016Z,27.70
2022-07-26T19:47:31.528Z,27.70
2022-07-26T19:49:59.436Z,27.70
2022-07-26T19:52:31.040Z,27.80
2022-07-26T19:54:59.012Z,27.70
2022-07-26T19:57:27.174Z,27.70
2022-07-26T19:59:55.521Z,27.40
2022-07-26T20:02:23.880Z,26.90
2022-07-26T20:04:56.262Z,26.70
2022-07-26T20:07:24.195Z,26.40
2022-07-26T20:09:52.558Z,26.20
2022-07-26T20:12:23.597Z,26.00
2022-07-26T20:14:51.579Z,25.70
2022-07-26T20:17:19.589Z,25.60
2022-07-26T20:19:48.343Z,25.50
2022-07-26T20:22:16.601Z,25.30
2022-07-26T20:24:44.732Z,25.20
2022-07-26T20:27:12.707Z,25.20
2022-07-26T20:29:40.602Z,25.30
2022-07-26T20:32:08.520Z,25.10
2022-07-26T20:34:36.475Z,24.90
2022-07-26T20:37:04.591Z,24.80
2022-07-26T20:39:33.240Z,24.60
2022-07-26T20:42:01.854Z,24.50
2022-07-26T20:44:29.725Z,24.50
2022-07-26T20:46:57.676Z,23.90
2022-07-26T20:49:32.914Z,23.80
2022-07-26T20:52:04.390Z,23.50
2022-07-26T20:54:32.785Z,23.30
2022-07-26T20:57:10.167Z,23.10
2022-07-26T20:59:44.125Z,22.80
2022-07-26T21:02:12.239Z,22.50
2022-07-26T21:04:40.092Z,22.30
2022-07-26T21:07:07.995Z,22.40
2022-07-26T21:09:35.880Z,22.50
2022-07-26T21:12:04.121Z,22.50
2022-07-26T21:14:32.054Z,22.50
2022-07-26T21:16:59.973Z,22.50
2022-07-26T21:19:27.897Z,22.50
2022-07-26T21:21:58.084Z,22.60
2022-07-26T21:24:26.029Z,22.40
2022-07-26T21:26:55.281Z,22.50
2022-07-26T21:29:23.457Z,22.50
2022-07-26T21:31:51.377Z,22.60
2022-07-26T21:34:19.442Z,22.70
2022-07-26T21:36:47.260Z,22.80
2022-07-26T21:39:15.196Z,23.00
2022-07-26T21:41:45.914Z,22.80
2022-07-26T21:44:13.859Z,22.50
2022-07-26T21:46:42.153Z,22.40
2022-07-26T21:49:10.500Z,22.40
2022-07-26T21:51:38.659Z,22.40
2022-07-26T21:54:06.847Z,22.50
2022-07-26T21:56:37.561Z,22.40
2022-07-26T21:59:05.414Z,22.20
2022-07-26T22:01:33.388Z,22.10
2022-07-26T22:04:01.234Z,22.00
2022-07-26T22:06:29.169Z,22.00
2022-07-26T22:08:59.531Z,21.90
2022-07-26T22:11:27.427Z,21.80
2022-07-26T22:13:55.412Z,21.80
2022-07-26T22:16:23.495Z,21.70
2022-07-26T22:18:51.416Z,21.60
2022-07-26T22:21:19.311Z,21.50
2022-07-26T22:23:47.494Z,21.50
2022-07-26T22:26:16.223Z,21.50
2022-07-26T22:28:44.113Z,21.40
2022-07-26T22:31:12.052Z,21.10
2022-07-26T22:33:39.934Z,21.00
2022-07-26T22:36:09.759Z,21.00
2022-07-26T22:38:37.753Z,21.00
2022-07-26T22:41:05.651Z,21.00
2022-07-26T22:43:33.636Z,21.10
2022-07-26T22:46:01.704Z,21.10
2022-07-26T22:48:29.758Z,21.10
2022-07-26T22:50:57.826Z,21.00
2022-07-26T22:53:25.916Z,21.00
2022-07-26T22:55:53.723Z,21.00
2022-07-26T22:58:22.649Z,21.00
2022-07-26T23:00:50.534Z,21.10
2022-07-26T23:03:20.693Z,21.10
2022-07-26T23:05:50.457Z,21.10
2022-07-26T23:11:08.154Z,21.00
2022-07-26T23:13:36.114Z,21.00
2022-07-26T23:16:04.440Z,21.00
2022-07-26T23:18:33.093Z,21.00
2022-07-26T23:21:04.432Z,21.00
2022-07-26T23:23:32.482Z,21.10
2022-07-26T23:26:00.346Z,21.30
2022-07-26T23:28:37.548Z,21.30
2022-07-26T23:31:11.215Z,21.30
2022-07-26T23:33:51.301Z,21.30
2022-07-26T23:36:27.816Z,21.40
2022-07-26T23:38:57.978Z,21.40
2022-07-26T23:41:27.263Z,21.30
2022-07-26T23:43:55.749Z,21.20
2022-07-26T23:46:24.288Z,21.10
2022-07-26T23:48:52.587Z,21.10
2022-07-26T23:51:22.827Z,21.00
2022-07-26T23:53:51.468Z,21.00
2022-07-26T23:56:19.525Z,21.00
2022-07-26T23:58:47.512Z,21.00
